MST,Max TemperatureF,Mean TemperatureF,Min TemperatureF,Max Dew PointF,MeanDew PointF,Min DewpointF,Max Humidity, Mean Humidity, Min Humidity, Max Sea Level PressureIn, Mean Sea Level PressureIn, Min Sea Level PressureIn, Max VisibilityMiles, Mean VisibilityMiles, Min VisibilityMiles, Max Wind SpeedMPH, Mean Wind SpeedMPH, Max Gust SpeedMPH,PrecipitationIn, CloudCover, Events, WindDirDegrees
2012-11-1,78,59,40,31,29,25,60,38,15,30.05,29.93,29.77,10,10,10,21,11,24,0.00,0,,203
2012-11-2,68,50,31,35,31,26,82,52,22,30.15,29.95,29.76,10,10,6,30,13,37,0.00,0,,330
2012-11-3,65,46,27,35,28,25,92,59,25,30.27,30.18,30.12,10,10,10,18,10,24,0.00,0,,221
2012-11-4,70,52,34,34,27,21,70,43,16,30.19,30.12,30.01,10,10,10,26,13,32,0.00,1,,296
2012-11-5,63,51,39,35,32,29,79,55,30,30.24,30.14,30.05,10,10,10,14,9,18,0.00,2,,299
2012-11-6,65,49,33,35,30,25,76,52,28,30.24,30.17,30.06,10,10,10,17,8,21,0.00,0,,309
2012-11-7,75,53,30,34,30,24,85,53,20,30.15,29.99,29.82,10,10,10,20,9,23,0.00,0,,170
2012-11-8,66,48,29,32,28,23,85,58,30,29.91,29.86,29.78,10,10,10,25,9,30,0.00,0,,12
2012-11-9,64,45,25,35,30,22,92,62,31,29.83,29.70,29.56,10,10,10,17,8,21,0.00,0,,127
2012-11-10,74,50,26,39,31,20,79,50,20,29.80,29.57,29.36,10,9,2,43,20,55,T,5,Rain-Thunderstorm,291
2012-11-11,36,24,11,19,11,3,80,56,32,30.35,30.10,29.86,10,10,10,24,12,31,T,3,,333
2012-11-12,50,32,13,16,4,-4,84,47,10,30.47,30.38,30.30,10,10,10,20,10,26,0.00,0,,252
2012-11-13,53,38,22,10,3,1,44,28,12,30.35,30.26,30.16,10,10,10,13,4,16,0.00,0,,296
2012-11-14,61,41,21,22,17,11,74,48,21,30.35,30.23,30.13,10,10,10,21,9,24,0.00,0,,216
2012-11-15,57,40,22,30,23,14,75,51,26,30.45,30.34,30.15,10,10,10,20,10,24,0.00,0,,23
2012-11-16,58,41,24,34,28,22,79,55,30,30.40,30.26,30.06,10,10,10,26,15,32,0.00,0,,182
2012-11-17,66,47,28,34,26,20,89,56,22,30.14,30.07,30.00,10,10,10,22,10,25,0.00,0,,168
2012-11-18,62,42,21,32,26,18,89,60,30,30.06,30.00,29.91,10,10,7,13,7,16,0.00,0,,250
2012-11-19,69,49,28,29,24,17,69,45,20,30.25,30.17,30.04,10,10,10,17,7,22,0.00,0,,284
2012-11-20,69,49,29,29,22,16,69,42,14,30.27,30.16,30.04,10,10,10,24,13,31,0.00,0,,212
2012-11-21,75,53,31,21,16,13,44,28,11,30.02,29.89,29.76,10,10,10,17,9,20,0.00,0,,218
2012-11-22,60,41,22,31,15,6,50,34,18,30.50,30.13,29.74,10,10,10,33,15,44,0.00,0,,331
2012-11-23,51,37,22,14,11,10,62,41,19,30.63,30.48,30.24,10,10,10,16,10,21,0.00,0,,266
2012-11-24,76,54,31,18,11,2,47,26,5,30.20,29.97,29.82,10,10,10,18,10,22,0.00,0,,253
2012-11-25,56,39,22,29,22,11,78,57,35,30.04,29.97,29.88,10,10,10,18,9,22,0.00,0,,111
2012-11-26,38,29,19,22,18,12,91,72,52,30.48,30.35,30.06,10,10,10,17,9,20,0.00,5,,28
2012-11-27,66,42,18,28,18,9,81,47,12,30.38,30.24,30.07,10,10,10,18,10,24,0.00,0,,184
2012-11-28,59,36,12,25,17,9,84,53,21,30.36,30.20,30.02,10,10,10,13,9,15,0.00,0,,212
2012-11-29,69,47,24,14,7,0,55,31,6,30.07,30.00,29.92,10,10,10,14,8,17,0.00,0,,243
2012-11-30,65,44,23,35,17,9,70,41,12,30.09,29.96,29.77,10,10,10,24,11,28,0.00,0,,177